Belmont, Washington
Current Conditions -  °F | °C
As of 2:53 PM on Saturday 20 Dec 2014 (Local Time) from KPUW Reporting Station
Light Rain Light Rain  
Wind Chill: 33°   Ceiling: 2900
Heat Index: 41°   Visibility: 6mi
Dew Point: 37°   Wind: 15mph
Humidity: 86%   Direction: 140°SE
Pressure: 29.75"   Gusts: NA
Location:  47.09°N, 117.16°W
Report Text: KPUW 202253Z AUTO 14013KT 6SM -RA BR OVC029 05/03 A2975 RMK AO2 SLP087 P0002 T00500028
Loading
Personal Weather Stations






























Interactive Weather Map New forecast layout! Learn more

10-Day Weather Forecast

Advertisements
Track Severe Weather on mobile